Alsace — PB4786 — position and weather

sailwx.info

Track history (hours):
 
Tides and Currents Weather Stations Pressure Air Temp Water Temp Dewpoint Dewpoint Depression Visibility Wind Speed Wind Dir Waves Ship Positions

Alsace

Last reported at 2014-Oct-20 20:33 UTC. Time now 2014-Oct-20 21:16 UTC.
Position N 51°15' E 006°43'.

Length 178 m.

Type: Ship. MMSI: 244660556.

Date/timePositionNaut miles runAvg speedWind from/ knotsBaromVisibWave heightAir tempDewpointWater temp
2014-Oct-20 20:33N 51°15' E 006°43'5 4.1
2014-Oct-20 19:27N 51°20' E 006°43'2 2.7
2014-Oct-20 18:31N 51°22' E 006°41'31 3.8
2014-Oct-20 10:20N 51°49' E 006°16'7 5.7
2014-Oct-20 09:07N 51°51' E 006°05'8 4.8
2014-Oct-20 07:22N 51°51' E 005°52'1 1.6
2014-Oct-20 06:32N 51°52' E 005°50'0 0.0
2014-Oct-20 05:25N 51°52' E 005°50'0 0.0
2014-Oct-20 04:27N 51°52' E 005°50'1 0.1
2014-Oct-19 21:29N 51°52' E 005°49'5 5.8
2014-Oct-19 20:33N 51°54' E 005°40'7 6.9
2014-Oct-19 19:33N 51°53' E 005°29'7 6.8
2014-Oct-19 18:34N 51°48' E 005°22'7 6.6
2014-Oct-19 17:33N 51°49' E 005°11'7 7.4
2014-Oct-19 16:33N 51°49' E 004°59'8 7.7
2014-Oct-19 15:33N 51°48' E 004°47'16 6.9
2014-Oct-19 13:16N 51°41' E 004°24'6 8.4
2014-Oct-19 12:32N 51°38' E 004°15'8 7.7
2014-Oct-19 11:33N 51°31' E 004°13'5 4.4
2014-Oct-19 10:28N 51°26' E 004°14'7 7.5
2014-Oct-19 09:33N 51°20' E 004°18'1 0.7
2014-Oct-19 08:32N 51°20' E 004°20'1 0.4
2014-Oct-19 07:18N 51°20' E 004°20'0 0.0
2014-Oct-19 06:33N 51°20' E 004°20'1 0.9
2014-Oct-19 05:22N 51°19' E 004°19'0 0.0
2014-Oct-19 04:23N 51°19' E 004°19'0 0.0
2014-Oct-19 03:27N 51°19' E 004°19'0 0.0
2014-Oct-19 02:33N 51°19' E 004°19'0 0.0
2014-Oct-19 01:33N 51°19' E 004°19'0 0.0
2014-Oct-19 00:32N 51°19' E 004°19'0 0.0
2014-Oct-18 23:32N 51°19' E 004°19'0 0.0
2014-Oct-18 22:31N 51°19' E 004°19'0 0.0
2014-Oct-18 21:33N 51°19' E 004°19'0 0.0
2014-Oct-18 20:22N 51°19' E 004°19'0 0.0
2014-Oct-18 19:12N 51°19' E 004°19'0 0.0
2014-Oct-18 18:33N 51°19' E 004°19'0 0.0
2014-Oct-18 17:09N 51°19' E 004°19'0 0.0
2014-Oct-18 16:33N 51°19' E 004°19'0 0.0
2014-Oct-18 15:33N 51°19' E 004°19'0 0.0
2014-Oct-18 14:31N 51°19' E 004°19'0 0.0
2014-Oct-18 13:28N 51°19' E 004°19'2 1.8
2014-Oct-18 12:33N 51°21' E 004°18'1 0.8
2014-Oct-18 11:33N 51°21' E 004°16'0 0.0
2014-Oct-18 10:33N 51°21' E 004°16'0 0.0
2014-Oct-18 09:33N 51°21' E 004°16'1 0.6
2014-Oct-18 08:33N 51°20' E 004°17'0 0.0
2014-Oct-18 07:27N 51°20' E 004°17'0 0.0
2014-Oct-18 06:32N 51°20' E 004°17'0 0.0
2014-Oct-18 05:33N 51°20' E 004°17'3 2.4
2014-Oct-18 04:30N 51°18' E 004°16'0 0.0
2014-Oct-18 03:32N 51°18' E 004°16'0 0.3
2014-Oct-18 02:32N 51°18' E 004°16'0 0.0
2014-Oct-18 01:33N 51°18' E 004°16'0 0.0
2014-Oct-18 00:30N 51°18' E 004°16'3 3.7
2014-Oct-17 23:33N 51°21' E 004°16'1 1.2
2014-Oct-17 22:32N 51°21' E 004°18'0 0.4
2014-Oct-17 21:31N 51°21' E 004°18'1 1.4
2014-Oct-17 20:31N 51°22' E 004°17'5 4.8
2014-Oct-17 19:29N 51°27' E 004°14'6 7.0
2014-Oct-17 18:34N 51°33' E 004°14'8 6.2
2014-Oct-17 17:19N 51°40' E 004°21'5 4.7
2014-Oct-17 16:14N 51°42' E 004°29'6 8.9
2014-Oct-17 15:34N 51°43' E 004°38'8 8.0
2014-Oct-17 14:33N 51°48' E 004°48'9 8.5
2014-Oct-17 13:33N 51°49' E 005°02'9 9.5
2014-Oct-17 12:34N 51°49' E 005°17'8 8.1
2014-Oct-17 11:34N 51°53' E 005°28'54 3.5
2014-Oct-16 20:03N 51°22' E 006°39'5 8.1
2014-Oct-16 19:29N 51°18' E 006°43'5 5.6
2014-Oct-16 18:34N 51°13' E 006°44'6 5.8
2014-Oct-16 17:33N 51°09' E 006°51'124 6.9
2014-Oct-15 23:31N 49°23' E 008°30'7 7.0
2014-Oct-15 22:33N 49°16' E 008°27'9 8.8
2014-Oct-15 21:33N 49°08' E 008°22'10 9.8
2014-Oct-15 20:33N 48°59' E 008°16'17 7.2
2014-Oct-15 18:15N 48°46' E 008°01'6 8.0
2014-Oct-15 17:27N 48°41' E 007°55'64 2.9
2014-Oct-14 19:21N 47°39' E 007°32'0 0.2
2014-Oct-14 18:33N 47°39' E 007°32'3 3.3
2014-Oct-14 17:33N 47°37' E 007°35'1 1.3
2014-Oct-14 16:31N 47°35' E 007°35'0 0.0
2014-Oct-14 11:31N 47°35' E 007°35'0 0.0
2014-Oct-14 09:27N 47°35' E 007°35'0 0.0
2014-Oct-14 08:07N 47°35' E 007°35'0 0.4
2014-Oct-14 07:32N 47°35' E 007°35'0 0.0
2014-Oct-13 15:10N 47°35' E 007°35'0 0.1
2014-Oct-13 13:06N 47°35' E 007°35'4 1.4
2014-Oct-13 10:33N 47°38' E 007°33'2 1.5
2014-Oct-13 09:20N 47°40' E 007°31'64 1.9
2014-Oct-12 00:27N 48°41' E 007°55'3 3.5
2014-Oct-11 23:33N 48°44' E 007°58'7 6.6
2014-Oct-11 22:32N 48°48' E 008°05'4 3.7
2014-Oct-11 21:33N 48°52' E 008°07'4 4.0
2014-Oct-11 20:33N 48°55' E 008°10'4 3.9
2014-Oct-11 19:33N 48°58' E 008°14'4 4.1
2014-Oct-11 18:33N 49°01' E 008°18'4 4.3
2014-Oct-11 17:33N 49°05' E 008°21'4 4.4
2014-Oct-11 16:33N 49°09' E 008°22'4 4.3
2014-Oct-11 15:33N 49°14' E 008°23'5 4.8
2014-Oct-11 14:30N 49°17' E 008°29'  
Track history (hours):
 
Tides and Currents Weather Stations Pressure Air Temp Water Temp Dewpoint Dewpoint Depression Visibility Wind Speed Wind Dir Waves Ship Positions

Alsace

Last reported at 2014-Oct-20 20:33 UTC. Time now 2014-Oct-20 21:16 UTC.
Position N 51°15' E 006°43'.

Length 178 m.

Type: Ship. MMSI: 244660556.

Date/timePositionNaut miles runAvg speedWind from/ knotsBaromVisibWave heightAir tempDewpointWater temp
2014-Oct-20 20:33N 51°15' E 006°43'5 4.1
2014-Oct-20 19:27N 51°20' E 006°43'2 2.7
2014-Oct-20 18:31N 51°22' E 006°41'31 3.8
2014-Oct-20 10:20N 51°49' E 006°16'7 5.7
2014-Oct-20 09:07N 51°51' E 006°05'8 4.8
2014-Oct-20 07:22N 51°51' E 005°52'1 1.6
2014-Oct-20 06:32N 51°52' E 005°50'0 0.0
2014-Oct-20 05:25N 51°52' E 005°50'0 0.0
2014-Oct-20 04:27N 51°52' E 005°50'1 0.1
2014-Oct-19 21:29N 51°52' E 005°49'5 5.8
2014-Oct-19 20:33N 51°54' E 005°40'7 6.9
2014-Oct-19 19:33N 51°53' E 005°29'7 6.8
2014-Oct-19 18:34N 51°48' E 005°22'7 6.6
2014-Oct-19 17:33N 51°49' E 005°11'7 7.4
2014-Oct-19 16:33N 51°49' E 004°59'8 7.7
2014-Oct-19 15:33N 51°48' E 004°47'16 6.9
2014-Oct-19 13:16N 51°41' E 004°24'6 8.4
2014-Oct-19 12:32N 51°38' E 004°15'8 7.7
2014-Oct-19 11:33N 51°31' E 004°13'5 4.4
2014-Oct-19 10:28N 51°26' E 004°14'7 7.5
2014-Oct-19 09:33N 51°20' E 004°18'1 0.7
2014-Oct-19 08:32N 51°20' E 004°20'1 0.4
2014-Oct-19 07:18N 51°20' E 004°20'0 0.0
2014-Oct-19 06:33N 51°20' E 004°20'1 0.9
2014-Oct-19 05:22N 51°19' E 004°19'0 0.0
2014-Oct-19 04:23N 51°19' E 004°19'0 0.0
2014-Oct-19 03:27N 51°19' E 004°19'0 0.0
2014-Oct-19 02:33N 51°19' E 004°19'0 0.0
2014-Oct-19 01:33N 51°19' E 004°19'0 0.0
2014-Oct-19 00:32N 51°19' E 004°19'0 0.0
2014-Oct-18 23:32N 51°19' E 004°19'0 0.0
2014-Oct-18 22:31N 51°19' E 004°19'0 0.0
2014-Oct-18 21:33N 51°19' E 004°19'0 0.0
2014-Oct-18 20:22N 51°19' E 004°19'0 0.0
2014-Oct-18 19:12N 51°19' E 004°19'0 0.0
2014-Oct-18 18:33N 51°19' E 004°19'0 0.0
2014-Oct-18 17:09N 51°19' E 004°19'0 0.0
2014-Oct-18 16:33N 51°19' E 004°19'0 0.0
2014-Oct-18 15:33N 51°19' E 004°19'0 0.0
2014-Oct-18 14:31N 51°19' E 004°19'0 0.0
2014-Oct-18 13:28N 51°19' E 004°19'2 1.8
2014-Oct-18 12:33N 51°21' E 004°18'1 0.8
2014-Oct-18 11:33N 51°21' E 004°16'0 0.0
2014-Oct-18 10:33N 51°21' E 004°16'0 0.0
2014-Oct-18 09:33N 51°21' E 004°16'1 0.6
2014-Oct-18 08:33N 51°20' E 004°17'0 0.0
2014-Oct-18 07:27N 51°20' E 004°17'0 0.0
2014-Oct-18 06:32N 51°20' E 004°17'0 0.0
2014-Oct-18 05:33N 51°20' E 004°17'3 2.4
2014-Oct-18 04:30N 51°18' E 004°16'0 0.0
2014-Oct-18 03:32N 51°18' E 004°16'0 0.3
2014-Oct-18 02:32N 51°18' E 004°16'0 0.0
2014-Oct-18 01:33N 51°18' E 004°16'0 0.0
2014-Oct-18 00:30N 51°18' E 004°16'3 3.7
2014-Oct-17 23:33N 51°21' E 004°16'1 1.2
2014-Oct-17 22:32N 51°21' E 004°18'0 0.4
2014-Oct-17 21:31N 51°21' E 004°18'1 1.4
2014-Oct-17 20:31N 51°22' E 004°17'5 4.8
2014-Oct-17 19:29N 51°27' E 004°14'6 7.0
2014-Oct-17 18:34N 51°33' E 004°14'8 6.2
2014-Oct-17 17:19N 51°40' E 004°21'5 4.7
2014-Oct-17 16:14N 51°42' E 004°29'6 8.9
2014-Oct-17 15:34N 51°43' E 004°38'8 8.0
2014-Oct-17 14:33N 51°48' E 004°48'9 8.5
2014-Oct-17 13:33N 51°49' E 005°02'9 9.5
2014-Oct-17 12:34N 51°49' E 005°17'8 8.1
2014-Oct-17 11:34N 51°53' E 005°28'54 3.5
2014-Oct-16 20:03N 51°22' E 006°39'5 8.1
2014-Oct-16 19:29N 51°18' E 006°43'5 5.6
2014-Oct-16 18:34N 51°13' E 006°44'6 5.8
2014-Oct-16 17:33N 51°09' E 006°51'124 6.9
2014-Oct-15 23:31N 49°23' E 008°30'7 7.0
2014-Oct-15 22:33N 49°16' E 008°27'9 8.8
2014-Oct-15 21:33N 49°08' E 008°22'10 9.8
2014-Oct-15 20:33N 48°59' E 008°16'17 7.2
2014-Oct-15 18:15N 48°46' E 008°01'6 8.0
2014-Oct-15 17:27N 48°41' E 007°55'64 2.9
2014-Oct-14 19:21N 47°39' E 007°32'0 0.2
2014-Oct-14 18:33N 47°39' E 007°32'3 3.3
2014-Oct-14 17:33N 47°37' E 007°35'1 1.3
2014-Oct-14 16:31N 47°35' E 007°35'0 0.0
2014-Oct-14 11:31N 47°35' E 007°35'0 0.0
2014-Oct-14 09:27N 47°35' E 007°35'0 0.0
2014-Oct-14 08:07N 47°35' E 007°35'0 0.4
2014-Oct-14 07:32N 47°35' E 007°35'0 0.0
2014-Oct-13 15:10N 47°35' E 007°35'0 0.1
2014-Oct-13 13:06N 47°35' E 007°35'4 1.4
2014-Oct-13 10:33N 47°38' E 007°33'2 1.5
2014-Oct-13 09:20N 47°40' E 007°31'64 1.9
2014-Oct-12 00:27N 48°41' E 007°55'3 3.5
2014-Oct-11 23:33N 48°44' E 007°58'7 6.6
2014-Oct-11 22:32N 48°48' E 008°05'4 3.7
2014-Oct-11 21:33N 48°52' E 008°07'4 4.0
2014-Oct-11 20:33N 48°55' E 008°10'4 3.9
2014-Oct-11 19:33N 48°58' E 008°14'4 4.1
2014-Oct-11 18:33N 49°01' E 008°18'4 4.3
2014-Oct-11 17:33N 49°05' E 008°21'4 4.4
2014-Oct-11 16:33N 49°09' E 008°22'4 4.3
2014-Oct-11 15:33N 49°14' E 008°23'5 4.8
2014-Oct-11 14:30N 49°17' E 008°29'  

Dump ship's entire track history